createdAt,value
2023-02-28T00:01:29.705Z,9.25
2023-02-28T00:03:57.983Z,8.93
2023-02-28T00:06:25.437Z,8.45
2023-02-28T00:08:53.176Z,8.63
2023-02-28T00:11:20.845Z,8.00
2023-02-28T00:13:48.851Z,9.27
2023-02-28T00:16:21.444Z,7.80
2023-02-28T00:18:49.538Z,8.25
2023-02-28T00:21:17.429Z,7.65
2023-02-28T00:23:44.929Z,9.02
2023-02-28T00:26:12.822Z,8.85
2023-02-28T00:28:40.353Z,8.85
2023-02-28T00:31:07.801Z,8.13
2023-02-28T00:33:36.374Z,8.82
2023-02-28T00:36:09.529Z,9.40
2023-02-28T00:38:38.653Z,9.68
2023-02-28T00:41:06.537Z,9.30
2023-02-28T00:43:35.398Z,9.18
2023-02-28T00:46:03.875Z,9.55
2023-02-28T00:48:31.538Z,10.30
2023-02-28T00:50:58.931Z,9.50
2023-02-28T00:53:26.672Z,8.10
2023-02-28T00:55:54.258Z,8.45
2023-02-28T00:58:21.801Z,7.97
2023-02-28T01:00:49.929Z,8.40
2023-02-28T01:03:18.757Z,7.78
2023-02-28T01:05:46.852Z,7.50
2023-02-28T01:08:15.684Z,7.72
2023-02-28T01:10:43.464Z,7.35
2023-02-28T01:13:13.233Z,7.28
2023-02-28T01:15:43.383Z,7.28
2023-02-28T01:18:12.156Z,7.35
2023-02-28T01:20:39.661Z,7.57
2023-02-28T01:23:07.430Z,7.68
2023-02-28T01:25:36.304Z,7.72
2023-02-28T01:28:06.780Z,7.40
2023-02-28T01:30:35.421Z,7.87
2023-02-28T01:33:03.185Z,7.75
2023-02-28T01:35:34.516Z,7.15
2023-02-28T01:38:20.540Z,7.22
2023-02-28T01:40:48.838Z,7.18
2023-02-28T01:43:24.592Z,7.40
2023-02-28T01:45:53.612Z,7.93
2023-02-28T01:48:27.114Z,7.50
2023-02-28T01:50:56.120Z,6.97
2023-02-28T01:53:31.460Z,8.30
2023-02-28T01:55:59.172Z,7.70
2023-02-28T01:58:26.957Z,7.68
2023-02-28T02:00:54.335Z,7.18
2023-02-28T02:03:22.126Z,7.43
2023-02-28T02:05:49.669Z,7.10
2023-02-28T02:08:24.189Z,7.12
2023-02-28T02:11:01.314Z,7.30
2023-02-28T02:13:56.846Z,7.37
2023-02-28T02:16:46.501Z,7.25
2023-02-28T02:19:40.469Z,6.80
2023-02-28T02:22:16.970Z,7.43
2023-02-28T02:25:00.706Z,7.00
2023-02-28T02:28:05.679Z,7.10
2023-02-28T02:30:48.082Z,7.18
2023-02-28T02:35:56.995Z,7.07
2023-02-28T02:38:38.965Z,7.12
2023-02-28T02:41:14.895Z,7.18
2023-02-28T02:43:59.266Z,7.22
2023-02-28T02:46:54.317Z,7.40
2023-02-28T02:49:36.021Z,6.85
2023-02-28T02:52:07.552Z,6.82
2023-02-28T02:54:38.483Z,6.93
2023-02-28T02:57:09.597Z,6.35
2023-02-28T02:59:39.863Z,6.72
2023-02-28T03:02:09.980Z,5.72
2023-02-28T03:04:43.473Z,6.68
2023-02-28T03:07:10.904Z,6.50
2023-02-28T03:09:38.796Z,6.75
2023-02-28T03:12:11.221Z,6.00
2023-02-28T03:14:41.889Z,5.70
2023-02-28T03:17:29.507Z,5.35
2023-02-28T03:20:21.836Z,5.30
2023-02-28T03:23:17.914Z,5.20
2023-02-28T03:25:56.890Z,4.50
2023-02-28T03:28:30.529Z,4.50
2023-02-28T03:31:20.611Z,5.15
2023-02-28T03:34:11.189Z,4.62
2023-02-28T03:37:00.864Z,4.43
2023-02-28T03:39:31.404Z,4.00
2023-02-28T03:42:02.128Z,4.60
2023-02-28T03:44:39.453Z,4.65
2023-02-28T03:47:37.604Z,4.87
2023-02-28T03:50:11.280Z,4.22
2023-02-28T03:52:46.039Z,4.12
2023-02-28T03:55:14.441Z,4.25
2023-02-28T03:58:09.237Z,4.37
2023-02-28T04:00:41.578Z,4.32
2023-02-28T04:03:09.608Z,4.15
2023-02-28T04:05:49.737Z,4.18
2023-02-28T04:08:17.562Z,4.35
2023-02-28T04:10:46.592Z,4.10
2023-02-28T04:13:13.962Z,4.35
2023-02-28T04:15:42.150Z,3.90
2023-02-28T04:18:09.604Z,4.07
2023-02-28T04:20:37.228Z,5.03
2023-02-28T04:23:05.151Z,4.47
2023-02-28T04:25:32.567Z,4.22
2023-02-28T04:27:59.914Z,4.18
2023-02-28T04:30:27.654Z,5.12
2023-02-28T04:32:55.061Z,5.25
2023-02-28T04:35:22.488Z,4.60
2023-02-28T04:37:50.174Z,5.20
2023-02-28T04:40:17.627Z,5.62
2023-02-28T04:42:45.023Z,4.65
2023-02-28T04:45:12.670Z,4.95
2023-02-28T04:47:40.238Z,4.90
2023-02-28T04:50:08.292Z,5.05
2023-02-28T04:52:35.997Z,4.85
2023-02-28T04:55:03.525Z,5.10
2023-02-28T04:57:31.024Z,4.57
2023-02-28T04:59:58.702Z,5.20
2023-02-28T05:02:26.195Z,4.75
2023-02-28T05:04:53.641Z,5.50
2023-02-28T05:07:21.343Z,4.93
2023-02-28T05:09:48.769Z,4.78
2023-02-28T05:12:16.944Z,4.87
2023-02-28T05:14:45.196Z,4.82
2023-02-28T05:17:12.547Z,4.43
2023-02-28T05:19:39.878Z,5.25
2023-02-28T05:22:14.446Z,5.05
2023-02-28T05:24:43.245Z,5.20
2023-02-28T05:27:11.446Z,5.95
2023-02-28T05:29:42.984Z,5.68
2023-02-28T05:32:12.110Z,5.57
2023-02-28T05:34:40.403Z,5.15
2023-02-28T05:37:12.401Z,5.50
2023-02-28T05:39:40.014Z,5.68
2023-02-28T05:42:07.670Z,6.40
2023-02-28T05:44:35.041Z,4.93
2023-02-28T05:47:02.876Z,5.43
2023-02-28T05:49:30.283Z,5.40
2023-02-28T05:51:57.729Z,5.03
2023-02-28T05:54:25.414Z,5.93
2023-02-28T05:56:52.805Z,5.12
2023-02-28T05:59:21.108Z,5.22
2023-02-28T06:01:52.591Z,5.53
2023-02-28T06:04:31.538Z,5.82
2023-02-28T06:06:59.661Z,5.50
2023-02-28T06:09:27.392Z,6.03
2023-02-28T06:11:55.178Z,7.18
2023-02-28T06:14:22.604Z,7.18
2023-02-28T06:16:50.450Z,8.50
2023-02-28T06:19:18.100Z,8.35
2023-02-28T06:21:45.509Z,8.88
2023-02-28T06:24:13.242Z,8.38
2023-02-28T06:26:40.656Z,7.78
2023-02-28T06:29:08.499Z,6.20
2023-02-28T06:31:36.277Z,5.87
2023-02-28T06:34:03.739Z,5.30
2023-02-28T06:36:31.421Z,5.80
2023-02-28T06:38:59.098Z,6.50
2023-02-28T06:41:27.672Z,5.50
2023-02-28T06:43:55.671Z,5.78
2023-02-28T06:46:24.357Z,5.28
2023-02-28T06:48:51.763Z,5.32
2023-02-28T06:51:25.270Z,5.37
2023-02-28T06:53:52.944Z,5.62
2023-02-28T06:56:21.350Z,5.47
2023-02-28T06:58:50.218Z,5.97
2023-02-28T07:01:18.225Z,5.50
2023-02-28T07:03:46.281Z,5.68
2023-02-28T07:06:13.732Z,4.22
2023-02-28T07:08:42.088Z,5.25
2023-02-28T07:11:09.523Z,5.00
2023-02-28T07:13:37.427Z,4.57
2023-02-28T07:16:07.179Z,5.30
2023-02-28T07:18:34.806Z,4.90
2023-02-28T07:21:07.598Z,10.98
2023-02-28T07:23:35.663Z,6.03
2023-02-28T07:26:03.078Z,5.20
2023-02-28T07:28:30.733Z,4.50
2023-02-28T07:30:58.403Z,4.82
2023-02-28T07:33:25.825Z,4.60
2023-02-28T07:35:53.248Z,5.22
2023-02-28T07:38:20.856Z,5.22
2023-02-28T07:40:48.261Z,4.28
2023-02-28T07:43:15.588Z,8.00
2023-02-28T07:45:43.226Z,6.95
2023-02-28T07:48:11.055Z,4.65
2023-02-28T07:50:38.837Z,4.15
2023-02-28T07:53:06.537Z,3.55
2023-02-28T07:55:33.970Z,3.42
2023-02-28T07:58:01.353Z,3.20
2023-02-28T08:00:30.112Z,3.37
2023-02-28T08:02:57.881Z,3.83
2023-02-28T08:05:25.397Z,3.08
2023-02-28T08:07:54.268Z,2.92
2023-02-28T08:10:22.113Z,2.92
2023-02-28T08:12:49.500Z,3.25
2023-02-28T08:15:16.977Z,3.03
2023-02-28T08:17:44.658Z,3.45
2023-02-28T08:20:12.388Z,2.90
2023-02-28T08:22:39.817Z,3.12
2023-02-28T08:25:08.376Z,3.17
2023-02-28T08:27:36.621Z,3.60
2023-02-28T08:30:04.649Z,2.58
2023-02-28T08:32:34.166Z,3.25
2023-02-28T08:35:02.834Z,2.58
2023-02-28T08:37:30.311Z,3.33
2023-02-28T08:39:58.068Z,3.10
2023-02-28T08:42:25.458Z,3.35
2023-02-28T08:44:52.947Z,2.95
2023-02-28T08:47:20.629Z,3.05
2023-02-28T08:49:48.038Z,2.92
2023-02-28T08:52:15.522Z,3.62
2023-02-28T08:54:43.185Z,3.37
2023-02-28T08:57:10.730Z,3.22
2023-02-28T08:59:38.094Z,3.62
2023-02-28T09:02:05.698Z,2.90
2023-02-28T09:04:34.806Z,3.80
2023-02-28T09:07:02.141Z,4.37
2023-02-28T09:09:29.784Z,5.40
2023-02-28T09:11:57.873Z,3.60
2023-02-28T09:14:25.331Z,3.35
2023-02-28T09:16:52.997Z,2.92
2023-02-28T09:19:20.486Z,3.45
2023-02-28T09:21:47.895Z,2.97
2023-02-28T09:24:16.326Z,4.43
2023-02-28T09:26:56.282Z,3.50
2023-02-28T09:29:31.980Z,3.75
2023-02-28T09:32:02.408Z,4.95
2023-02-28T09:34:32.637Z,3.83
2023-02-28T09:37:00.466Z,3.87
2023-02-28T09:39:28.064Z,3.70
2023-02-28T09:41:56.673Z,3.75
2023-02-28T09:44:33.158Z,5.15
2023-02-28T09:47:25.131Z,4.20
2023-02-28T09:49:52.832Z,5.22
2023-02-28T09:52:23.205Z,3.55
2023-02-28T09:54:50.730Z,4.43
2023-02-28T09:57:40.129Z,3.83
2023-02-28T10:00:32.917Z,4.12
2023-02-28T10:03:27.829Z,3.87
2023-02-28T10:06:15.638Z,4.18
2023-02-28T10:09:03.383Z,3.87
2023-02-28T10:11:33.812Z,3.60
2023-02-28T10:14:11.652Z,3.80
2023-02-28T10:16:47.325Z,4.32
2023-02-28T10:19:22.935Z,4.00
2023-02-28T10:22:00.448Z,4.15
2023-02-28T10:24:39.804Z,4.37
2023-02-28T10:27:25.232Z,4.03
2023-02-28T10:29:55.846Z,3.25
2023-02-28T10:32:29.807Z,3.33
2023-02-28T10:35:01.374Z,3.78
2023-02-28T10:37:29.417Z,3.65
2023-02-28T10:39:57.361Z,3.58
2023-02-28T10:42:29.580Z,3.83
2023-02-28T10:47:37.545Z,4.15
2023-02-28T10:50:05.569Z,4.45
2023-02-28T10:52:38.624Z,3.60
2023-02-28T10:55:25.911Z,3.65
2023-02-28T10:57:53.542Z,3.60
2023-02-28T11:00:26.634Z,3.95
2023-02-28T11:02:54.039Z,4.07
2023-02-28T11:05:25.289Z,4.57
2023-02-28T11:07:55.228Z,4.07
2023-02-28T11:10:26.762Z,4.00
2023-02-28T11:12:59.731Z,4.28
2023-02-28T11:15:30.655Z,3.55
2023-02-28T11:18:04.534Z,3.30
2023-02-28T11:20:33.653Z,3.87
2023-02-28T11:23:03.582Z,3.87
2023-02-28T11:25:37.517Z,3.90
2023-02-28T11:28:07.681Z,3.62
2023-02-28T11:30:41.409Z,3.92
2023-02-28T11:33:29.803Z,3.53
2023-02-28T11:36:04.581Z,4.10
2023-02-28T11:38:35.333Z,3.22
2023-02-28T11:41:11.325Z,3.15
2023-02-28T11:43:52.082Z,4.22
2023-02-28T11:46:29.410Z,4.40
2023-02-28T11:49:18.832Z,4.05
2023-02-28T11:51:59.571Z,4.15
2023-02-28T11:54:49.083Z,4.30
2023-02-28T11:57:16.392Z,3.92
2023-02-28T11:59:56.649Z,4.10
2023-02-28T12:02:46.025Z,3.72
2023-02-28T12:05:24.055Z,4.20
2023-02-28T12:08:18.024Z,4.25
2023-02-28T12:11:01.544Z,4.10
2023-02-28T12:13:44.422Z,3.70
2023-02-28T12:16:24.438Z,3.70
2023-02-28T12:18:58.073Z,3.95
2023-02-28T12:21:41.408Z,4.70
2023-02-28T12:24:11.520Z,3.90
2023-02-28T12:26:41.224Z,4.37
2023-02-28T12:29:25.273Z,5.28
2023-02-28T12:32:09.281Z,4.22
2023-02-28T12:34:40.678Z,4.40
2023-02-28T12:37:16.050Z,4.23
2023-02-28T12:39:50.510Z,4.00
2023-02-28T12:42:30.525Z,4.20
2023-02-28T12:45:00.789Z,4.57
2023-02-28T12:47:28.666Z,4.60
2023-02-28T12:50:07.237Z,4.47
2023-02-28T12:53:00.679Z,4.75
2023-02-28T12:55:44.314Z,4.45
2023-02-28T12:58:17.056Z,4.37
2023-02-28T13:00:56.387Z,4.00
2023-02-28T13:03:42.101Z,4.47
2023-02-28T13:06:34.739Z,4.68
2023-02-28T13:11:49.377Z,4.32
2023-02-28T13:14:28.690Z,3.75
2023-02-28T13:17:08.095Z,4.45
2023-02-28T13:19:39.029Z,4.10
2023-02-28T13:22:07.055Z,4.68
2023-02-28T13:24:41.637Z,4.53
2023-02-28T13:27:10.565Z,4.15
2023-02-28T13:29:41.373Z,4.60
2023-02-28T13:32:11.930Z,3.83
2023-02-28T13:34:50.437Z,4.43
2023-02-28T13:37:24.145Z,4.43
2023-02-28T13:39:54.382Z,4.35
2023-02-28T13:42:36.971Z,4.68
2023-02-28T13:45:04.362Z,4.75
2023-02-28T13:47:55.742Z,4.30
2023-02-28T13:50:30.814Z,5.03
2023-02-28T13:53:16.998Z,5.87
2023-02-28T13:55:50.015Z,4.78
2023-02-28T13:58:18.860Z,4.78
2023-02-28T14:00:56.347Z,4.60
2023-02-28T14:03:27.442Z,4.55
2023-02-28T14:06:16.915Z,4.10
2023-02-28T14:09:22.496Z,3.97
2023-02-28T14:11:50.103Z,4.50
2023-02-28T14:14:47.164Z,4.95
2023-02-28T14:17:16.273Z,4.90
2023-02-28T14:19:50.961Z,4.30
2023-02-28T14:22:54.018Z,3.72
2023-02-28T14:25:56.959Z,3.67
2023-02-28T14:28:53.786Z,5.75
2023-02-28T14:31:38.337Z,3.83
2023-02-28T14:34:24.551Z,3.87
2023-02-28T14:36:53.919Z,4.10
2023-02-28T14:39:23.772Z,3.80
2023-02-28T14:41:51.654Z,3.60
2023-02-28T14:44:24.620Z,4.05
2023-02-28T14:46:57.965Z,3.83
2023-02-28T14:49:33.732Z,3.85
2023-02-28T14:52:20.758Z,3.80
2023-02-28T14:55:00.329Z,3.50
2023-02-28T14:57:31.587Z,3.78
2023-02-28T15:00:11.549Z,3.47
2023-02-28T15:02:40.298Z,3.70
2023-02-28T15:05:10.831Z,3.65
2023-02-28T15:07:38.305Z,4.20
2023-02-28T15:10:08.559Z,3.45
2023-02-28T15:12:37.212Z,4.07
2023-02-28T15:15:05.111Z,3.95
2023-02-28T15:17:32.724Z,4.10
2023-02-28T15:20:00.762Z,4.18
2023-02-28T15:22:35.587Z,5.35
2023-02-28T15:25:06.848Z,4.70
2023-02-28T15:27:34.985Z,4.18
2023-02-28T15:30:08.853Z,3.42
2023-02-28T15:32:40.641Z,3.35
2023-02-28T15:35:38.158Z,3.90
2023-02-28T15:38:27.162Z,4.12
2023-02-28T15:40:56.923Z,3.95
2023-02-28T15:43:36.512Z,6.80
2023-02-28T15:46:12.196Z,14.02
2023-02-28T15:48:59.844Z,7.50
2023-02-28T15:51:34.681Z,6.50
2023-02-28T15:54:11.882Z,4.32
2023-02-28T15:56:44.615Z,4.22
2023-02-28T15:59:18.755Z,4.30
2023-02-28T16:01:46.839Z,5.20
2023-02-28T16:04:19.916Z,4.43
2023-02-28T16:06:53.997Z,3.80
2023-02-28T16:09:21.759Z,4.65
2023-02-28T16:11:50.990Z,5.45
2023-02-28T16:14:24.039Z,5.85
2023-02-28T16:16:56.733Z,6.00
2023-02-28T16:19:24.747Z,6.65
2023-02-28T16:21:52.531Z,6.53
2023-02-28T16:24:19.984Z,7.50
2023-02-28T16:26:49.519Z,10.05
2023-02-28T16:29:23.816Z,10.48
2023-02-28T16:31:51.231Z,8.10
2023-02-28T16:34:18.910Z,6.62
2023-02-28T16:36:49.834Z,7.95
2023-02-28T16:39:17.440Z,8.20
2023-02-28T16:41:46.202Z,7.10
2023-02-28T16:44:29.675Z,8.27
2023-02-28T16:46:57.439Z,7.00
2023-02-28T16:49:24.819Z,7.00
2023-02-28T16:51:52.240Z,6.47
2023-02-28T16:54:19.978Z,6.53
2023-02-28T16:56:48.357Z,7.10
2023-02-28T16:59:20.942Z,6.68
2023-02-28T17:01:48.780Z,7.05
2023-02-28T17:04:16.717Z,6.68
2023-02-28T17:06:44.298Z,6.93
2023-02-28T17:09:22.917Z,7.53
2023-02-28T17:11:51.934Z,9.27
2023-02-28T17:14:19.624Z,9.60
2023-02-28T17:16:48.191Z,10.82
2023-02-28T17:19:17.881Z,9.02
2023-02-28T17:21:45.740Z,8.15
2023-02-28T17:24:28.916Z,10.73
2023-02-28T17:26:58.184Z,8.50
2023-02-28T17:29:25.938Z,7.80
2023-02-28T17:31:53.417Z,6.87
2023-02-28T17:34:21.155Z,8.45
2023-02-28T17:36:50.420Z,10.48
2023-02-28T17:39:25.383Z,10.27
2023-02-28T17:41:53.826Z,8.88
2023-02-28T17:44:22.140Z,12.20
2023-02-28T17:46:50.461Z,15.10
2023-02-28T17:49:19.209Z,11.32
2023-02-28T17:51:47.394Z,11.57
2023-02-28T17:54:16.064Z,15.10
2023-02-28T17:56:44.807Z,11.43
2023-02-28T17:59:13.060Z,12.27
2023-02-28T18:01:40.597Z,12.23
2023-02-28T18:04:08.276Z,10.50
2023-02-28T18:06:47.057Z,11.18
2023-02-28T18:09:16.314Z,9.88
2023-02-28T18:11:46.053Z,9.38
2023-02-28T18:14:13.588Z,11.10
2023-02-28T18:16:41.421Z,11.07
2023-02-28T18:19:14.824Z,11.30
2023-02-28T18:21:43.870Z,12.57
2023-02-28T18:24:12.647Z,12.90
2023-02-28T18:26:40.456Z,11.90
2023-02-28T18:29:08.466Z,11.50
2023-02-28T18:31:36.163Z,12.43
2023-02-28T18:34:03.665Z,11.30
2023-02-28T18:36:31.656Z,11.20
2023-02-28T18:38:59.873Z,9.57
2023-02-28T18:41:28.984Z,10.73
2023-02-28T18:43:56.760Z,11.52
2023-02-28T18:46:24.196Z,13.18
2023-02-28T18:48:51.599Z,13.10
2023-02-28T18:51:22.833Z,14.13
2023-02-28T18:53:50.216Z,14.98
2023-02-28T18:56:19.568Z,17.83
2023-02-28T18:58:47.646Z,13.60
2023-02-28T19:01:23.791Z,14.23
2023-02-28T19:03:51.623Z,13.75
2023-02-28T19:06:52.234Z,14.05
2023-02-28T19:09:20.049Z,14.07
2023-02-28T19:11:47.486Z,14.27
2023-02-28T19:14:14.834Z,13.15
2023-02-28T19:16:42.565Z,13.45
2023-02-28T19:19:09.967Z,13.95
2023-02-28T19:21:37.452Z,13.10
2023-02-28T19:24:05.485Z,11.85
2023-02-28T19:26:32.904Z,11.18
2023-02-28T19:29:03.637Z,10.30
2023-02-28T19:31:31.686Z,9.90
2023-02-28T19:33:59.289Z,10.77
2023-02-28T19:36:27.501Z,10.00
2023-02-28T19:38:55.199Z,11.38
2023-02-28T19:41:22.746Z,10.75
2023-02-28T19:43:51.211Z,10.48
2023-02-28T19:46:20.140Z,10.77
2023-02-28T19:48:48.813Z,11.35
2023-02-28T19:53:49.037Z,10.27
2023-02-28T19:56:16.446Z,10.98
2023-02-28T19:58:43.829Z,10.13
2023-02-28T20:01:13.662Z,9.93
2023-02-28T20:03:41.806Z,9.30
2023-02-28T20:06:13.673Z,11.35
2023-02-28T20:08:41.832Z,11.12
2023-02-28T20:11:11.837Z,10.20
2023-02-28T20:13:39.330Z,11.50
2023-02-28T20:16:09.615Z,11.18
2023-02-28T20:18:41.063Z,11.50
2023-02-28T20:21:09.932Z,11.70
2023-02-28T20:23:40.985Z,10.20
2023-02-28T20:26:10.015Z,11.82
2023-02-28T20:28:38.248Z,11.68
2023-02-28T20:31:17.638Z,11.40
2023-02-28T20:33:46.927Z,10.98
2023-02-28T20:36:15.776Z,11.12
2023-02-28T20:38:43.689Z,10.73
2023-02-28T20:41:11.562Z,7.50
2023-02-28T20:43:39.877Z,9.98
2023-02-28T20:46:07.317Z,10.93
2023-02-28T20:48:38.426Z,11.60
2023-02-28T20:51:06.315Z,11.95
2023-02-28T20:53:35.163Z,12.52
2023-02-28T20:56:05.674Z,13.82
2023-02-28T20:58:35.582Z,13.45
2023-02-28T21:01:12.482Z,12.25
2023-02-28T21:03:40.125Z,13.77
2023-02-28T21:06:08.098Z,13.57
2023-02-28T21:08:37.045Z,12.98
2023-02-28T21:11:35.034Z,14.20
2023-02-28T21:14:05.158Z,13.50
2023-02-28T21:16:33.222Z,13.57
2023-02-28T21:19:06.813Z,13.88
2023-02-28T21:21:40.044Z,14.40
2023-02-28T21:24:07.836Z,14.87
2023-02-28T21:26:35.553Z,15.43
2023-02-28T21:29:03.377Z,14.38
2023-02-28T21:31:32.859Z,14.45
2023-02-28T21:34:01.888Z,13.73
2023-02-28T21:36:33.079Z,15.43
2023-02-28T21:39:04.963Z,14.43
2023-02-28T21:41:32.342Z,13.60
2023-02-28T21:43:59.720Z,14.93
2023-02-28T21:46:29.171Z,14.80
2023-02-28T21:48:57.469Z,15.02
2023-02-28T21:51:33.828Z,14.10
2023-02-28T21:54:01.564Z,13.07
2023-02-28T21:56:31.450Z,13.45
2023-02-28T21:59:02.822Z,12.95
2023-02-28T22:01:36.101Z,12.85
2023-02-28T22:04:06.291Z,13.25
2023-02-28T22:06:36.438Z,13.82
2023-02-28T22:09:07.448Z,12.37
2023-02-28T22:11:36.023Z,12.20
2023-02-28T22:14:03.690Z,12.02
2023-02-28T22:16:44.116Z,11.85
2023-02-28T22:19:16.626Z,11.32
2023-02-28T22:21:44.954Z,11.73
2023-02-28T22:24:12.308Z,10.88
2023-02-28T22:26:39.970Z,11.63
2023-02-28T22:29:07.559Z,11.80
2023-02-28T22:31:35.520Z,12.35
2023-02-28T22:34:09.386Z,10.13
2023-02-28T22:36:37.449Z,12.45
2023-02-28T22:39:05.249Z,12.98
2023-02-28T22:41:33.203Z,13.68
2023-02-28T22:44:02.375Z,14.02
2023-02-28T22:46:32.372Z,12.85
2023-02-28T22:49:01.133Z,12.60
2023-02-28T22:51:29.303Z,12.82
2023-02-28T22:53:58.120Z,13.88
2023-02-28T22:56:28.153Z,15.13
2023-02-28T22:58:57.506Z,16.50
2023-02-28T23:01:27.122Z,17.20
2023-02-28T23:03:54.912Z,16.90
2023-02-28T23:06:31.304Z,18.65
2023-02-28T23:09:02.204Z,16.27
2023-02-28T23:11:33.101Z,14.95
2023-02-28T23:14:01.180Z,16.15
2023-02-28T23:16:37.754Z,17.27
2023-02-28T23:19:26.572Z,17.20
2023-02-28T23:21:54.095Z,17.02
2023-02-28T23:24:23.909Z,18.00
2023-02-28T23:26:53.894Z,18.27
2023-02-28T23:29:23.117Z,14.60
2023-02-28T23:31:51.076Z,16.15
2023-02-28T23:34:26.123Z,14.45
2023-02-28T23:36:55.199Z,15.00
2023-02-28T23:39:22.985Z,15.32
2023-02-28T23:41:50.441Z,14.45
2023-02-28T23:44:18.222Z,14.82
2023-02-28T23:46:47.590Z,16.27
2023-02-28T23:49:15.850Z,15.10
2023-02-28T23:51:43.517Z,13.73
2023-02-28T23:54:11.039Z,12.27
2023-02-28T23:56:38.412Z,11.60
2023-02-28T23:59:06.336Z,11.25
